Penn Laird, VA (22846)

10:27 PM EST on February 12, 2016 (GMT -0500)
Sunnyside Retirement Community | | Change Station
CLOSE
Current Station
Personal Weather Station
Location: Harrisonburg, VA
Elevation: 1516 ft
Nearby Weather Stations

Elev 1516 ft 38.40 °N, 78.83 °W | Updated 13 minutes ago

Overcast
Overcast
27.0 °F
Feels Like 20 °F
N
6.8
Wind Variable Wind from West

Today
High -- | Low -- °F
--% Chance of Precip.
Yesterday
High -- | Low -- °F
Precip. -- in
Pressure 29.96 in
Visibility 10.0 miles
Clouds Overcast 5000 ft
Windchill 20 °F
Dew Point 11 °F
Humidity 50%
Rainfall 0.00 in
Snow Depth Not available.
7:09 AM 5:49 PM
Waxing Crescent, 26% visible
METAR KSHD 130315Z AUTO 30015G19KT 10SM OVC050 01/M11 A2996 RMK AO2 T00061107
Pressure 29.96 in
Visibility 10.0 miles
Clouds Overcast 5000 ft
Windchill 20 °F
Dew Point 11 °F
Humidity 50%
Rainfall 0.00 in
Snow Depth Not available.
7:09 AM 5:49 PM
Waxing Crescent, 26% visible
METAR KSHD 130315Z AUTO 30015G19KT 10SM OVC050 01/M11 A2996 RMK AO2 T00061107

10-Day Weather Forecast

Almanac

Astronomy

Feb. 12, 2016 Rise Set
Actual Time
Civil Twilight
Nautical Twilight
Astronomical Twilight
Moon
Length of Visible Light
Length of Day
Tomorrow will be .
, % of the Moon is Illuminated

Today's Extremes

State Highs State Lows

Community

WunderPhotos

Upload Photos

1,892,491 photos uploaded!

WunderBlog® & News

Nearby

Air Quality

  Air Quality AQ Index Pollutant
Not available.

Snow Depth

Station Depth Elevation

Earthquake Activity

City Distance Mag. Time & Date
Minimum magnitude displayed is 2.5.

Coastal Water Temperatures

Place Temperature

Stations

Nearby Weather Stations

Station Location Temp. Windchill Dew Point Humidity Wind Precip. Elev Updated Type
                   

Watches & Warnings

There are currently no watches in effect.